sensor_id;sensor_type;location;lat;lon;timestamp;temperature;humidity
68867;SHT30;56451;44.804;20.476;2023-08-06T00:00:19;22.19;72.60
68867;SHT30;56451;44.804;20.476;2023-08-06T00:02:45;22.17;72.61
68867;SHT30;56451;44.804;20.476;2023-08-06T00:05:11;22.05;73.10
68867;SHT30;56451;44.804;20.476;2023-08-06T00:07:37;22.01;72.99
68867;SHT30;56451;44.804;20.476;2023-08-06T00:10:03;21.95;72.97
68867;SHT30;56451;44.804;20.476;2023-08-06T00:12:29;21.88;73.25
68867;SHT30;56451;44.804;20.476;2023-08-06T00:14:55;21.79;73.62
68867;SHT30;56451;44.804;20.476;2023-08-06T00:17:21;21.77;73.61
68867;SHT30;56451;44.804;20.476;2023-08-06T00:19:47;21.71;73.87
68867;SHT30;56451;44.804;20.476;2023-08-06T00:22:13;21.73;74.04
68867;SHT30;56451;44.804;20.476;2023-08-06T00:24:39;21.73;74.22
68867;SHT30;56451;44.804;20.476;2023-08-06T00:27:05;21.71;74.41
68867;SHT30;56451;44.804;20.476;2023-08-06T00:29:31;21.73;74.25
68867;SHT30;56451;44.804;20.476;2023-08-06T00:31:57;21.78;74.06
68867;SHT30;56451;44.804;20.476;2023-08-06T00:34:24;21.84;73.82
68867;SHT30;56451;44.804;20.476;2023-08-06T00:36:50;21.81;74.01
68867;SHT30;56451;44.804;20.476;2023-08-06T00:39:16;21.87;73.59
68867;SHT30;56451;44.804;20.476;2023-08-06T00:41:42;21.85;73.40
68867;SHT30;56451;44.804;20.476;2023-08-06T00:44:08;21.85;73.51
68867;SHT30;56451;44.804;20.476;2023-08-06T00:46:34;21.89;73.49
68867;SHT30;56451;44.804;20.476;2023-08-06T00:49:00;21.95;72.99
68867;SHT30;56451;44.804;20.476;2023-08-06T00:51:26;21.95;72.80
68867;SHT30;56451;44.804;20.476;2023-08-06T00:53:53;21.89;72.92
68867;SHT30;56451;44.804;20.476;2023-08-06T00:56:20;21.91;73.08
68867;SHT30;56451;44.804;20.476;2023-08-06T00:58:46;21.88;72.90
68867;SHT30;56451;44.804;20.476;2023-08-06T01:01:13;21.85;72.93
68867;SHT30;56451;44.804;20.476;2023-08-06T01:03:39;21.82;73.22
68867;SHT30;56451;44.804;20.476;2023-08-06T01:06:05;21.84;73.15
68867;SHT30;56451;44.804;20.476;2023-08-06T01:11:38;21.77;73.36
68867;SHT30;56451;44.804;20.476;2023-08-06T01:14:09;21.81;73.36
68867;SHT30;56451;44.804;20.476;2023-08-06T01:16:38;21.74;73.52
68867;SHT30;56451;44.804;20.476;2023-08-06T01:19:18;21.77;73.55
68867;SHT30;56451;44.804;20.476;2023-08-06T01:21:44;21.77;73.56
68867;SHT30;56451;44.804;20.476;2023-08-06T01:24:10;21.78;73.51
68867;SHT30;56451;44.804;20.476;2023-08-06T01:26:42;21.78;73.46
68867;SHT30;56451;44.804;20.476;2023-08-06T01:29:15;21.82;73.16
68867;SHT30;56451;44.804;20.476;2023-08-06T01:31:44;21.82;72.91
68867;SHT30;56451;44.804;20.476;2023-08-06T01:34:17;21.85;72.69
68867;SHT30;56451;44.804;20.476;2023-08-06T01:36:46;21.82;72.72
68867;SHT30;56451;44.804;20.476;2023-08-06T01:39:11;21.77;72.96
68867;SHT30;56451;44.804;20.476;2023-08-06T01:41:37;21.82;72.89
68867;SHT30;56451;44.804;20.476;2023-08-06T01:44:03;21.79;72.71
68867;SHT30;56451;44.804;20.476;2023-08-06T01:46:31;21.82;72.86
68867;SHT30;56451;44.804;20.476;2023-08-06T01:48:56;21.82;72.79
68867;SHT30;56451;44.804;20.476;2023-08-06T01:51:22;21.81;72.53
68867;SHT30;56451;44.804;20.476;2023-08-06T01:53:48;21.85;72.51
68867;SHT30;56451;44.804;20.476;2023-08-06T01:56:14;21.81;72.62
68867;SHT30;56451;44.804;20.476;2023-08-06T01:58:40;21.79;72.68
68867;SHT30;56451;44.804;20.476;2023-08-06T02:01:06;21.77;72.83
68867;SHT30;56451;44.804;20.476;2023-08-06T02:03:32;21.71;72.84
68867;SHT30;56451;44.804;20.476;2023-08-06T02:05:58;21.69;73.09
68867;SHT30;56451;44.804;20.476;2023-08-06T02:08:24;21.67;72.97
68867;SHT30;56451;44.804;20.476;2023-08-06T02:10:49;21.68;73.04
68867;SHT30;56451;44.804;20.476;2023-08-06T02:13:15;21.71;72.97
68867;SHT30;56451;44.804;20.476;2023-08-06T02:15:42;21.74;72.59
68867;SHT30;56451;44.804;20.476;2023-08-06T02:18:09;21.71;72.60
68867;SHT30;56451;44.804;20.476;2023-08-06T02:20:35;21.77;72.62
68867;SHT30;56451;44.804;20.476;2023-08-06T02:23:01;21.75;72.31
68867;SHT30;56451;44.804;20.476;2023-08-06T02:25:27;21.74;72.56
68867;SHT30;56451;44.804;20.476;2023-08-06T02:27:53;21.74;72.72
68867;SHT30;56451;44.804;20.476;2023-08-06T02:33:25;21.77;72.43
68867;SHT30;56451;44.804;20.476;2023-08-06T02:35:51;21.73;72.58
68867;SHT30;56451;44.804;20.476;2023-08-06T02:38:17;21.73;72.68
68867;SHT30;56451;44.804;20.476;2023-08-06T02:40:46;21.78;72.74
68867;SHT30;56451;44.804;20.476;2023-08-06T02:43:13;21.78;72.22
68867;SHT30;56451;44.804;20.476;2023-08-06T02:45:39;21.75;72.51
68867;SHT30;56451;44.804;20.476;2023-08-06T02:48:05;21.77;72.48
68867;SHT30;56451;44.804;20.476;2023-08-06T02:50:37;21.78;72.30
68867;SHT30;56451;44.804;20.476;2023-08-06T02:53:03;21.84;71.95
68867;SHT30;56451;44.804;20.476;2023-08-06T02:55:29;21.88;71.83
68867;SHT30;56451;44.804;20.476;2023-08-06T02:57:56;21.85;71.45
68867;SHT30;56451;44.804;20.476;2023-08-06T03:00:23;21.84;71.60
68867;SHT30;56451;44.804;20.476;2023-08-06T03:02:49;21.82;71.87
68867;SHT30;56451;44.804;20.476;2023-08-06T03:05:28;21.81;71.71
68867;SHT30;56451;44.804;20.476;2023-08-06T03:07:54;21.79;71.83
68867;SHT30;56451;44.804;20.476;2023-08-06T03:10:24;21.79;71.90
68867;SHT30;56451;44.804;20.476;2023-08-06T03:12:53;21.79;71.81
68867;SHT30;56451;44.804;20.476;2023-08-06T03:15:20;21.78;71.89
68867;SHT30;56451;44.804;20.476;2023-08-06T03:17:47;21.77;71.98
68867;SHT30;56451;44.804;20.476;2023-08-06T03:20:15;21.79;71.62
68867;SHT30;56451;44.804;20.476;2023-08-06T03:22:42;21.82;71.32
68867;SHT30;56451;44.804;20.476;2023-08-06T03:25:08;21.81;71.31
68867;SHT30;56451;44.804;20.476;2023-08-06T03:27:35;21.71;71.55
68867;SHT30;56451;44.804;20.476;2023-08-06T03:30:02;21.67;71.66
68867;SHT30;56451;44.804;20.476;2023-08-06T03:32:29;21.67;71.94
68867;SHT30;56451;44.804;20.476;2023-08-06T03:34:55;21.65;72.14
68867;SHT30;56451;44.804;20.476;2023-08-06T03:37:25;21.61;72.21
68867;SHT30;56451;44.804;20.476;2023-08-06T03:39:51;21.60;72.48
68867;SHT30;56451;44.804;20.476;2023-08-06T03:42:17;21.64;72.60
68867;SHT30;56451;44.804;20.476;2023-08-06T03:44:43;21.67;72.54
68867;SHT30;56451;44.804;20.476;2023-08-06T03:47:09;21.67;72.44
68867;SHT30;56451;44.804;20.476;2023-08-06T03:49:36;21.69;72.01
68867;SHT30;56451;44.804;20.476;2023-08-06T03:52:03;21.74;71.94
68867;SHT30;56451;44.804;20.476;2023-08-06T03:54:30;21.78;71.60
68867;SHT30;56451;44.804;20.476;2023-08-06T03:56:55;21.75;71.85
68867;SHT30;56451;44.804;20.476;2023-08-06T03:59:21;21.79;71.95
68867;SHT30;56451;44.804;20.476;2023-08-06T04:01:48;21.81;71.67
68867;SHT30;56451;44.804;20.476;2023-08-06T04:04:14;21.79;71.78
68867;SHT30;56451;44.804;20.476;2023-08-06T04:06:39;21.78;72.02
68867;SHT30;56451;44.804;20.476;2023-08-06T04:09:05;21.87;71.83
68867;SHT30;56451;44.804;20.476;2023-08-06T04:11:31;21.92;71.26
68867;SHT30;56451;44.804;20.476;2023-08-06T04:13:57;21.92;71.13
68867;SHT30;56451;44.804;20.476;2023-08-06T04:16:24;21.94;70.94
68867;SHT30;56451;44.804;20.476;2023-08-06T04:18:52;21.98;70.86
68867;SHT30;56451;44.804;20.476;2023-08-06T04:21:19;22.06;70.18
68867;SHT30;56451;44.804;20.476;2023-08-06T04:23:46;22.08;69.93
68867;SHT30;56451;44.804;20.476;2023-08-06T04:26:12;22.10;70.08
68867;SHT30;56451;44.804;20.476;2023-08-06T04:28:38;22.09;70.00
68867;SHT30;56451;44.804;20.476;2023-08-06T04:31:04;22.09;69.94
68867;SHT30;56451;44.804;20.476;2023-08-06T04:33:32;22.12;70.06
68867;SHT30;56451;44.804;20.476;2023-08-06T04:36:03;22.16;70.32
68867;SHT30;56451;44.804;20.476;2023-08-06T04:38:29;22.13;70.46
68867;SHT30;56451;44.804;20.476;2023-08-06T04:40:55;22.15;70.56
68867;SHT30;56451;44.804;20.476;2023-08-06T04:43:22;22.17;70.71
68867;SHT30;56451;44.804;20.476;2023-08-06T04:45:50;22.23;70.52
68867;SHT30;56451;44.804;20.476;2023-08-06T04:48:17;22.29;70.21
68867;SHT30;56451;44.804;20.476;2023-08-06T04:50:47;22.29;69.71
68867;SHT30;56451;44.804;20.476;2023-08-06T04:53:13;22.33;69.59
68867;SHT30;56451;44.804;20.476;2023-08-06T04:55:39;22.35;69.56
68867;SHT30;56451;44.804;20.476;2023-08-06T04:58:05;22.35;69.90
68867;SHT30;56451;44.804;20.476;2023-08-06T05:00:31;22.33;70.17
68867;SHT30;56451;44.804;20.476;2023-08-06T05:02:59;22.35;70.18
68867;SHT30;56451;44.804;20.476;2023-08-06T05:05:26;22.35;70.17
68867;SHT30;56451;44.804;20.476;2023-08-06T05:07:54;22.39;70.28
68867;SHT30;56451;44.804;20.476;2023-08-06T05:10:21;22.43;70.12
68867;SHT30;56451;44.804;20.476;2023-08-06T05:12:46;22.50;69.41
68867;SHT30;56451;44.804;20.476;2023-08-06T05:15:12;22.49;69.54
68867;SHT30;56451;44.804;20.476;2023-08-06T05:17:38;22.46;69.59
68867;SHT30;56451;44.804;20.476;2023-08-06T05:20:04;22.49;69.62
68867;SHT30;56451;44.804;20.476;2023-08-06T05:22:30;22.43;69.86
68867;SHT30;56451;44.804;20.476;2023-08-06T05:24:56;22.37;70.33
68867;SHT30;56451;44.804;20.476;2023-08-06T05:27:22;22.42;70.16
68867;SHT30;56451;44.804;20.476;2023-08-06T05:29:48;22.39;70.33
68867;SHT30;56451;44.804;20.476;2023-08-06T05:32:14;22.43;70.68
68867;SHT30;56451;44.804;20.476;2023-08-06T05:34:40;22.46;70.41
68867;SHT30;56451;44.804;20.476;2023-08-06T05:37:07;22.47;70.62
68867;SHT30;56451;44.804;20.476;2023-08-06T05:39:33;22.49;70.48
68867;SHT30;56451;44.804;20.476;2023-08-06T05:41:58;22.50;70.88
68867;SHT30;56451;44.804;20.476;2023-08-06T05:44:24;22.46;71.13
68867;SHT30;56451;44.804;20.476;2023-08-06T05:46:50;22.53;71.07
68867;SHT30;56451;44.804;20.476;2023-08-06T05:49:17;22.46;71.23
68867;SHT30;56451;44.804;20.476;2023-08-06T05:51:43;22.56;71.21
68867;SHT30;56451;44.804;20.476;2023-08-06T05:54:09;22.59;71.00
68867;SHT30;56451;44.804;20.476;2023-08-06T05:56:35;22.60;70.98
68867;SHT30;56451;44.804;20.476;2023-08-06T05:59:01;22.64;70.86
68867;SHT30;56451;44.804;20.476;2023-08-06T06:01:27;22.61;70.99
68867;SHT30;56451;44.804;20.476;2023-08-06T06:03:54;22.67;71.16
68867;SHT30;56451;44.804;20.476;2023-08-06T06:06:20;22.66;71.35
68867;SHT30;56451;44.804;20.476;2023-08-06T06:08:46;22.63;71.92
68867;SHT30;56451;44.804;20.476;2023-08-06T06:11:12;22.67;71.71
68867;SHT30;56451;44.804;20.476;2023-08-06T06:13:38;22.67;71.51
68867;SHT30;56451;44.804;20.476;2023-08-06T06:16:03;22.70;71.77
68867;SHT30;56451;44.804;20.476;2023-08-06T06:18:31;22.70;71.76
68867;SHT30;56451;44.804;20.476;2023-08-06T06:20:57;22.70;71.74
68867;SHT30;56451;44.804;20.476;2023-08-06T06:23:22;22.70;71.80
68867;SHT30;56451;44.804;20.476;2023-08-06T06:25:49;22.71;71.56
68867;SHT30;56451;44.804;20.476;2023-08-06T06:28:18;22.75;71.70
68867;SHT30;56451;44.804;20.476;2023-08-06T06:30:43;22.75;71.24
68867;SHT30;56451;44.804;20.476;2023-08-06T06:33:10;22.75;71.66
68867;SHT30;56451;44.804;20.476;2023-08-06T06:35:36;22.74;71.54
68867;SHT30;56451;44.804;20.476;2023-08-06T06:38:03;22.70;71.98
68867;SHT30;56451;44.804;20.476;2023-08-06T06:40:29;22.71;71.80
68867;SHT30;56451;44.804;20.476;2023-08-06T06:42:55;22.80;71.82
68867;SHT30;56451;44.804;20.476;2023-08-06T06:45:21;22.81;71.76
68867;SHT30;56451;44.804;20.476;2023-08-06T06:47:47;22.90;71.36
68867;SHT30;56451;44.804;20.476;2023-08-06T06:50:13;22.91;71.19
68867;SHT30;56451;44.804;20.476;2023-08-06T06:52:39;22.97;71.16
68867;SHT30;56451;44.804;20.476;2023-08-06T06:55:05;22.97;71.09
68867;SHT30;56451;44.804;20.476;2023-08-06T06:57:31;22.97;71.45
68867;SHT30;56451;44.804;20.476;2023-08-06T06:59:56;22.95;71.29
68867;SHT30;56451;44.804;20.476;2023-08-06T07:02:22;22.94;71.50
68867;SHT30;56451;44.804;20.476;2023-08-06T07:04:49;22.95;70.67
68867;SHT30;56451;44.804;20.476;2023-08-06T07:07:15;22.95;70.63
68867;SHT30;56451;44.804;20.476;2023-08-06T07:09:41;22.90;70.88
68867;SHT30;56451;44.804;20.476;2023-08-06T07:12:07;22.88;70.26
68867;SHT30;56451;44.804;20.476;2023-08-06T07:14:33;22.83;70.88
68867;SHT30;56451;44.804;20.476;2023-08-06T07:16:59;22.87;71.05
68867;SHT30;56451;44.804;20.476;2023-08-06T07:19:25;22.91;70.94
68867;SHT30;56451;44.804;20.476;2023-08-06T07:21:50;22.94;70.74
68867;SHT30;56451;44.804;20.476;2023-08-06T07:24:16;22.98;70.75
68867;SHT30;56451;44.804;20.476;2023-08-06T07:26:43;23.02;70.83
68867;SHT30;56451;44.804;20.476;2023-08-06T07:29:08;23.10;70.69
68867;SHT30;56451;44.804;20.476;2023-08-06T07:31:34;23.10;71.30
68867;SHT30;56451;44.804;20.476;2023-08-06T07:34:00;23.12;71.74
68867;SHT30;56451;44.804;20.476;2023-08-06T07:36:26;23.22;71.11
68867;SHT30;56451;44.804;20.476;2023-08-06T07:38:53;23.26;70.70
68867;SHT30;56451;44.804;20.476;2023-08-06T07:41:22;23.31;71.26
68867;SHT30;56451;44.804;20.476;2023-08-06T07:43:48;23.37;70.62
68867;SHT30;56451;44.804;20.476;2023-08-06T07:46:15;23.38;70.28
68867;SHT30;56451;44.804;20.476;2023-08-06T07:48:41;23.46;70.24
68867;SHT30;56451;44.804;20.476;2023-08-06T07:51:07;23.49;70.20
68867;SHT30;56451;44.804;20.476;2023-08-06T07:53:33;23.53;68.74
68867;SHT30;56451;44.804;20.476;2023-08-06T07:55:58;23.60;69.03
68867;SHT30;56451;44.804;20.476;2023-08-06T07:58:27;23.70;68.44
68867;SHT30;56451;44.804;20.476;2023-08-06T08:00:55;23.69;67.40
68867;SHT30;56451;44.804;20.476;2023-08-06T08:03:21;23.70;67.72
68867;SHT30;56451;44.804;20.476;2023-08-06T08:05:46;23.70;67.73
68867;SHT30;56451;44.804;20.476;2023-08-06T08:08:12;23.74;67.35
68867;SHT30;56451;44.804;20.476;2023-08-06T08:10:39;23.79;67.32
68867;SHT30;56451;44.804;20.476;2023-08-06T08:13:05;23.81;67.18
68867;SHT30;56451;44.804;20.476;2023-08-06T08:15:31;23.79;66.87
68867;SHT30;56451;44.804;20.476;2023-08-06T08:17:58;23.77;66.90
68867;SHT30;56451;44.804;20.476;2023-08-06T08:20:24;23.70;67.28
68867;SHT30;56451;44.804;20.476;2023-08-06T08:22:50;23.69;67.03
68867;SHT30;56451;44.804;20.476;2023-08-06T08:25:16;23.67;66.07
68867;SHT30;56451;44.804;20.476;2023-08-06T08:27:43;23.67;64.84
68867;SHT30;56451;44.804;20.476;2023-08-06T08:30:08;23.65;64.87
68867;SHT30;56451;44.804;20.476;2023-08-06T08:32:34;23.67;65.45
68867;SHT30;56451;44.804;20.476;2023-08-06T08:35:00;23.72;66.12
68867;SHT30;56451;44.804;20.476;2023-08-06T08:37:27;23.74;66.25
68867;SHT30;56451;44.804;20.476;2023-08-06T08:39:53;23.74;65.80
68867;SHT30;56451;44.804;20.476;2023-08-06T08:42:19;23.74;66.27
68867;SHT30;56451;44.804;20.476;2023-08-06T08:44:46;23.79;66.08
68867;SHT30;56451;44.804;20.476;2023-08-06T08:47:12;23.79;65.76
68867;SHT30;56451;44.804;20.476;2023-08-06T08:49:38;23.80;64.95
68867;SHT30;56451;44.804;20.476;2023-08-06T08:52:04;23.86;65.05
68867;SHT30;56451;44.804;20.476;2023-08-06T08:54:32;23.80;65.30
68867;SHT30;56451;44.804;20.476;2023-08-06T08:56:59;23.83;65.38
68867;SHT30;56451;44.804;20.476;2023-08-06T08:59:26;23.86;65.80
68867;SHT30;56451;44.804;20.476;2023-08-06T09:01:53;23.84;65.60
68867;SHT30;56451;44.804;20.476;2023-08-06T09:04:20;23.87;65.53
68867;SHT30;56451;44.804;20.476;2023-08-06T09:06:50;23.86;65.98
68867;SHT30;56451;44.804;20.476;2023-08-06T09:09:28;23.89;66.23
68867;SHT30;56451;44.804;20.476;2023-08-06T09:12:00;23.93;66.25
68867;SHT30;56451;44.804;20.476;2023-08-06T09:14:27;24.01;65.21
68867;SHT30;56451;44.804;20.476;2023-08-06T09:16:54;24.11;64.74
68867;SHT30;56451;44.804;20.476;2023-08-06T09:19:20;24.16;64.57
68867;SHT30;56451;44.804;20.476;2023-08-06T09:21:46;24.17;64.40
68867;SHT30;56451;44.804;20.476;2023-08-06T09:24:15;24.20;63.96
68867;SHT30;56451;44.804;20.476;2023-08-06T09:26:44;24.22;63.58
68867;SHT30;56451;44.804;20.476;2023-08-06T09:29:10;24.22;63.75
68867;SHT30;56451;44.804;20.476;2023-08-06T09:31:41;24.29;64.21
68867;SHT30;56451;44.804;20.476;2023-08-06T09:34:21;24.39;63.63
68867;SHT30;56451;44.804;20.476;2023-08-06T09:36:49;24.42;63.23
68867;SHT30;56451;44.804;20.476;2023-08-06T09:39:18;24.49;63.21
68867;SHT30;56451;44.804;20.476;2023-08-06T09:41:46;24.58;62.32
68867;SHT30;56451;44.804;20.476;2023-08-06T09:44:18;24.64;62.32
68867;SHT30;56451;44.804;20.476;2023-08-06T09:47:03;24.64;62.89
68867;SHT30;56451;44.804;20.476;2023-08-06T09:51:59;24.80;62.05
68867;SHT30;56451;44.804;20.476;2023-08-06T09:54:26;24.82;59.69
68867;SHT30;56451;44.804;20.476;2023-08-06T09:56:54;24.80;59.72
68867;SHT30;56451;44.804;20.476;2023-08-06T09:59:21;24.82;60.06
68867;SHT30;56451;44.804;20.476;2023-08-06T10:01:48;24.86;59.83
68867;SHT30;56451;44.804;20.476;2023-08-06T10:04:15;24.86;59.90
68867;SHT30;56451;44.804;20.476;2023-08-06T10:06:47;24.89;60.38
68867;SHT30;56451;44.804;20.476;2023-08-06T10:09:14;24.83;60.22
68867;SHT30;56451;44.804;20.476;2023-08-06T10:11:40;24.82;59.93
68867;SHT30;56451;44.804;20.476;2023-08-06T10:14:18;24.86;60.52
68867;SHT30;56451;44.804;20.476;2023-08-06T10:16:46;24.87;58.41
68867;SHT30;56451;44.804;20.476;2023-08-06T10:19:14;24.92;58.77
68867;SHT30;56451;44.804;20.476;2023-08-06T10:21:41;24.90;57.61
68867;SHT30;56451;44.804;20.476;2023-08-06T10:24:08;24.87;58.18
68867;SHT30;56451;44.804;20.476;2023-08-06T10:26:36;24.89;57.89
68867;SHT30;56451;44.804;20.476;2023-08-06T10:29:38;24.96;58.35
68867;SHT30;56451;44.804;20.476;2023-08-06T10:32:04;25.07;57.38
68867;SHT30;56451;44.804;20.476;2023-08-06T10:34:55;25.17;57.16
68867;SHT30;56451;44.804;20.476;2023-08-06T10:37:22;25.24;57.38
68867;SHT30;56451;44.804;20.476;2023-08-06T10:39:52;25.38;56.38
68867;SHT30;56451;44.804;20.476;2023-08-06T10:42:22;25.48;56.15
68867;SHT30;56451;44.804;20.476;2023-08-06T10:45:12;25.58;56.42
68867;SHT30;56451;44.804;20.476;2023-08-06T10:47:42;25.67;57.05
68867;SHT30;56451;44.804;20.476;2023-08-06T10:50:14;25.75;55.95
68867;SHT30;56451;44.804;20.476;2023-08-06T10:52:46;25.86;55.45
68867;SHT30;56451;44.804;20.476;2023-08-06T10:55:13;25.91;55.05
68867;SHT30;56451;44.804;20.476;2023-08-06T10:57:40;25.92;54.57
68867;SHT30;56451;44.804;20.476;2023-08-06T11:00:07;25.96;55.41
68867;SHT30;56451;44.804;20.476;2023-08-06T11:02:34;25.95;55.14
68867;SHT30;56451;44.804;20.476;2023-08-06T11:05:08;25.96;55.48
68867;SHT30;56451;44.804;20.476;2023-08-06T11:07:35;25.99;54.35
68867;SHT30;56451;44.804;20.476;2023-08-06T11:10:06;25.96;54.74
68867;SHT30;56451;44.804;20.476;2023-08-06T11:12:33;25.95;53.83
68867;SHT30;56451;44.804;20.476;2023-08-06T11:15:00;25.89;54.26
68867;SHT30;56451;44.804;20.476;2023-08-06T11:17:30;25.91;54.18
68867;SHT30;56451;44.804;20.476;2023-08-06T11:20:01;25.89;52.95
68867;SHT30;56451;44.804;20.476;2023-08-06T11:22:28;25.89;52.92
68867;SHT30;56451;44.804;20.476;2023-08-06T11:24:55;25.82;53.14
68867;SHT30;56451;44.804;20.476;2023-08-06T11:27:21;25.82;53.31
68867;SHT30;56451;44.804;20.476;2023-08-06T11:33:11;25.75;54.33
68867;SHT30;56451;44.804;20.476;2023-08-06T11:35:38;25.74;54.44
68867;SHT30;56451;44.804;20.476;2023-08-06T11:38:06;25.74;54.06
68867;SHT30;56451;44.804;20.476;2023-08-06T11:40:35;25.74;54.45
68867;SHT30;56451;44.804;20.476;2023-08-06T11:43:01;25.74;54.35
68867;SHT30;56451;44.804;20.476;2023-08-06T11:45:28;25.77;54.64
68867;SHT30;56451;44.804;20.476;2023-08-06T11:47:54;25.72;54.51
68867;SHT30;56451;44.804;20.476;2023-08-06T11:50:23;25.78;54.93
68867;SHT30;56451;44.804;20.476;2023-08-06T11:52:53;25.81;55.27
68867;SHT30;56451;44.804;20.476;2023-08-06T11:55:23;25.88;55.19
68867;SHT30;56451;44.804;20.476;2023-08-06T11:57:51;25.93;54.91
68867;SHT30;56451;44.804;20.476;2023-08-06T12:00:17;25.96;54.48
68867;SHT30;56451;44.804;20.476;2023-08-06T12:02:51;26.01;54.44
68867;SHT30;56451;44.804;20.476;2023-08-06T12:05:30;26.02;54.73
68867;SHT30;56451;44.804;20.476;2023-08-06T12:07:59;26.02;54.99
68867;SHT30;56451;44.804;20.476;2023-08-06T12:10:27;26.06;53.68
68867;SHT30;56451;44.804;20.476;2023-08-06T12:12:54;26.13;52.37
68867;SHT30;56451;44.804;20.476;2023-08-06T12:15:22;26.12;52.48
68867;SHT30;56451;44.804;20.476;2023-08-06T12:17:52;26.12;52.52
68867;SHT30;56451;44.804;20.476;2023-08-06T12:20:19;26.12;52.63
68867;SHT30;56451;44.804;20.476;2023-08-06T12:22:45;26.18;52.45
68867;SHT30;56451;44.804;20.476;2023-08-06T12:25:11;26.22;51.67
68867;SHT30;56451;44.804;20.476;2023-08-06T12:27:40;26.16;51.63
68867;SHT30;56451;44.804;20.476;2023-08-06T12:30:08;26.09;52.22
68867;SHT30;56451;44.804;20.476;2023-08-06T12:32:34;26.08;52.43
68867;SHT30;56451;44.804;20.476;2023-08-06T12:35:00;26.08;52.54
68867;SHT30;56451;44.804;20.476;2023-08-06T12:37:28;26.06;52.79
68867;SHT30;56451;44.804;20.476;2023-08-06T12:39:53;26.02;52.99
68867;SHT30;56451;44.804;20.476;2023-08-06T12:42:19;26.05;53.30
68867;SHT30;56451;44.804;20.476;2023-08-06T12:44:46;26.08;53.35
68867;SHT30;56451;44.804;20.476;2023-08-06T12:47:13;26.11;53.40
68867;SHT30;56451;44.804;20.476;2023-08-06T12:49:39;26.09;54.03
68867;SHT30;56451;44.804;20.476;2023-08-06T12:52:05;26.12;54.22
68867;SHT30;56451;44.804;20.476;2023-08-06T12:54:32;26.15;54.31
68867;SHT30;56451;44.804;20.476;2023-08-06T12:57:03;26.20;54.87
68867;SHT30;56451;44.804;20.476;2023-08-06T12:59:29;26.29;54.49
68867;SHT30;56451;44.804;20.476;2023-08-06T13:01:55;26.36;52.92
68867;SHT30;56451;44.804;20.476;2023-08-06T13:04:21;26.43;53.55
68867;SHT30;56451;44.804;20.476;2023-08-06T13:06:47;26.50;52.79
68867;SHT30;56451;44.804;20.476;2023-08-06T13:09:15;26.59;52.48
68867;SHT30;56451;44.804;20.476;2023-08-06T13:11:41;26.69;51.31
68867;SHT30;56451;44.804;20.476;2023-08-06T13:14:08;26.74;50.72
68867;SHT30;56451;44.804;20.476;2023-08-06T13:16:35;26.77;51.10
68867;SHT30;56451;44.804;20.476;2023-08-06T13:19:03;26.83;51.01
68867;SHT30;56451;44.804;20.476;2023-08-06T13:24:02;26.86;51.52
68867;SHT30;56451;44.804;20.476;2023-08-06T13:26:29;26.95;50.23
68867;SHT30;56451;44.804;20.476;2023-08-06T13:28:59;27.02;50.41
68867;SHT30;56451;44.804;20.476;2023-08-06T13:31:26;27.08;50.65
68867;SHT30;56451;44.804;20.476;2023-08-06T13:33:53;27.12;50.63
68867;SHT30;56451;44.804;20.476;2023-08-06T13:36:22;27.11;51.00
68867;SHT30;56451;44.804;20.476;2023-08-06T13:38:48;27.11;52.01
68867;SHT30;56451;44.804;20.476;2023-08-06T13:41:15;27.11;50.41
68867;SHT30;56451;44.804;20.476;2023-08-06T13:43:42;27.09;52.45
68867;SHT30;56451;44.804;20.476;2023-08-06T13:46:08;27.05;53.57
68867;SHT30;56451;44.804;20.476;2023-08-06T13:48:35;26.99;53.41
68867;SHT30;56451;44.804;20.476;2023-08-06T13:51:00;26.94;54.11
68867;SHT30;56451;44.804;20.476;2023-08-06T13:53:27;26.92;54.33
68867;SHT30;56451;44.804;20.476;2023-08-06T13:55:56;26.92;54.54
68867;SHT30;56451;44.804;20.476;2023-08-06T13:58:23;26.80;54.60
68867;SHT30;56451;44.804;20.476;2023-08-06T14:00:49;26.70;55.23
68867;SHT30;56451;44.804;20.476;2023-08-06T14:03:19;26.64;55.67
68867;SHT30;56451;44.804;20.476;2023-08-06T14:05:45;26.53;56.08
68867;SHT30;56451;44.804;20.476;2023-08-06T14:08:10;26.47;56.97
68867;SHT30;56451;44.804;20.476;2023-08-06T14:10:37;26.09;60.51
68867;SHT30;56451;44.804;20.476;2023-08-06T14:13:03;25.57;62.06
68867;SHT30;56451;44.804;20.476;2023-08-06T14:15:29;25.16;63.27
68867;SHT30;56451;44.804;20.476;2023-08-06T14:17:55;24.68;65.19
68867;SHT30;56451;44.804;20.476;2023-08-06T14:20:21;24.39;64.64
68867;SHT30;56451;44.804;20.476;2023-08-06T14:22:48;24.16;67.00
68867;SHT30;56451;44.804;20.476;2023-08-06T14:25:15;24.07;66.90
68867;SHT30;56451;44.804;20.476;2023-08-06T14:27:41;24.06;69.25
68867;SHT30;56451;44.804;20.476;2023-08-06T14:30:08;23.86;70.01
68867;SHT30;56451;44.804;20.476;2023-08-06T14:32:33;23.79;69.54
68867;SHT30;56451;44.804;20.476;2023-08-06T14:35:02;23.65;68.68
68867;SHT30;56451;44.804;20.476;2023-08-06T14:37:28;23.46;70.14
68867;SHT30;56451;44.804;20.476;2023-08-06T14:39:54;23.39;69.49
68867;SHT30;56451;44.804;20.476;2023-08-06T14:42:21;23.33;68.93
68867;SHT30;56451;44.804;20.476;2023-08-06T14:44:47;23.23;68.78
68867;SHT30;56451;44.804;20.476;2023-08-06T14:47:13;23.18;68.80
68867;SHT30;56451;44.804;20.476;2023-08-06T14:49:39;23.10;68.58
68867;SHT30;56451;44.804;20.476;2023-08-06T14:52:06;23.01;68.70
68867;SHT30;56451;44.804;20.476;2023-08-06T14:54:32;22.91;69.47
68867;SHT30;56451;44.804;20.476;2023-08-06T14:56:59;22.88;69.83
68867;SHT30;56451;44.804;20.476;2023-08-06T14:59:24;22.81;68.65
68867;SHT30;56451;44.804;20.476;2023-08-06T15:01:50;22.77;67.66
68867;SHT30;56451;44.804;20.476;2023-08-06T15:04:17;22.70;68.05
68867;SHT30;56451;44.804;20.476;2023-08-06T15:06:45;22.56;68.40
68867;SHT30;56451;44.804;20.476;2023-08-06T15:09:11;22.53;68.49
68867;SHT30;56451;44.804;20.476;2023-08-06T15:11:37;22.47;68.56
68867;SHT30;56451;44.804;20.476;2023-08-06T15:14:04;22.42;68.64
68867;SHT30;56451;44.804;20.476;2023-08-06T15:16:33;22.37;68.34
68867;SHT30;56451;44.804;20.476;2023-08-06T15:19:00;22.29;68.34
68867;SHT30;56451;44.804;20.476;2023-08-06T15:21:27;22.22;68.63
68867;SHT30;56451;44.804;20.476;2023-08-06T15:23:54;22.20;68.71
68867;SHT30;56451;44.804;20.476;2023-08-06T15:26:20;22.16;68.94
68867;SHT30;56451;44.804;20.476;2023-08-06T15:28:46;22.13;68.21